Time;durP1;ratioP1;P1;durP2;ratioP2;P2;SDS_P1;SDS_P2;PMS_P1;PMS_P2;Temp;Humidity;BMP_temperature;BMP_pressure;BME280_temperature;BME280_humidity;BME280_pressure;Samples;Min_cycle;Max_cycle;Signal;HPM_P1;HPM_P2
2024/01/30 00:00:06;;;;;;;50.75;29.25;;;;;;;;;;6178849;23;20001;-85
2024/01/30 00:02:32;;;;;;;53.00;33.30;;;;;;;;;;6175845;23;20055;-85
2024/01/30 00:04:57;;;;;;;67.30;39.65;;;;;;;;;;6178781;23;19992;-85
2024/01/30 00:07:22;;;;;;;73.45;41.15;;;;;;;;;;6177845;23;20003;-85
2024/01/30 00:09:50;;;;;;;70.90;40.47;;;;;;;;;;6176619;23;20001;-85
2024/01/30 00:12:16;;;;;;;64.15;37.28;;;;;;;;;;6176615;23;20005;-85
2024/01/30 00:14:43;;;;;;;118.88;58.17;;;;;;;;;;6176487;23;20084;-86
2024/01/30 00:17:08;;;;;;;185.27;84.40;;;;;;;;;;6176055;23;20012;-85
2024/01/30 00:19:33;;;;;;;92.63;44.67;;;;;;;;;;6178968;23;20332;-85
2024/01/30 00:21:58;;;;;;;52.45;30.52;;;;;;;;;;6178194;23;20072;-85
2024/01/30 00:24:24;;;;;;;53.95;31.27;;;;;;;;;;6179920;23;19993;-85
2024/01/30 00:26:49;;;;;;;46.70;28.20;;;;;;;;;;6180110;23;19993;-85
2024/01/30 00:29:19;;;;;;;116.82;58.13;;;;;;;;;;6179788;23;20068;-85
2024/01/30 00:31:44;;;;;;;;;;;;;;;;;;6178786;23;19997;-85
2024/01/30 00:34:09;;;;;;;165.82;76.30;;;;;;;;;;6178369;23;20327;-85
2024/01/30 00:36:34;;;;;;;145.75;72.63;;;;;;;;;;6178528;23;19997;-85
2024/01/30 00:39:00;;;;;;;137.60;63.28;;;;;;;;;;6177585;23;20067;-85
2024/01/30 00:41:26;;;;;;;151.80;65.95;;;;;;;;;;6178410;23;20031;-86
2024/01/30 00:43:52;;;;;;;155.82;68.55;;;;;;;;;;6178157;23;20044;-85
2024/01/30 00:46:17;;;;;;;141.90;66.07;;;;;;;;;;6178628;23;20000;-84
2024/01/30 00:48:42;;;;;;;154.40;72.60;;;;;;;;;;6177898;23;20443;-85
2024/01/30 00:51:07;;;;;;;120.65;60.30;;;;;;;;;;6178334;23;20005;-86
2024/01/30 00:53:33;;;;;;;97.20;48.78;;;;;;;;;;6178455;23;20440;-85
2024/01/30 00:55:58;;;;;;;93.05;48.38;;;;;;;;;;6178201;23;20445;-85
2024/01/30 00:58:23;;;;;;;81.68;44.05;;;;;;;;;;6178072;23;20001;-85
2024/01/30 01:00:49;;;;;;;98.10;49.60;;;;;;;;;;6178511;23;20001;-85
2024/01/30 01:03:14;;;;;;;98.10;48.20;;;;;;;;;;6178110;23;20449;-85
2024/01/30 01:05:39;;;;;;;76.28;40.90;;;;;;;;;;6179277;23;20005;-85
2024/01/30 01:08:05;;;;;;;74.90;37.92;;;;;;;;;;6177915;23;20001;-85
2024/01/30 01:10:30;;;;;;;70.13;37.47;;;;;;;;;;6179535;23;20340;-86
2024/01/30 01:12:55;;;;;;;94.63;49.25;;;;;;;;;;6176746;23;20012;-86
2024/01/30 01:15:21;;;;;;;104.07;54.42;;;;;;;;;;6178297;23;20051;-85
2024/01/30 01:17:46;;;;;;;104.60;54.63;;;;;;;;;;6177561;23;20444;-85
2024/01/30 01:20:11;;;;;;;93.97;50.65;;;;;;;;;;6178323;23;20024;-85
2024/01/30 01:22:38;;;;;;;62.75;35.40;;;;;;;;;;6177785;23;20329;-86
2024/01/30 01:25:06;;;;;;;75.63;40.55;;;;;;;;;;6178657;23;20131;-86
2024/01/30 01:27:32;;;;;;;86.78;44.28;;;;;;;;;;6177785;23;20425;-86
2024/01/30 01:29:58;;;;;;;94.57;48.42;;;;;;;;;;6178817;23;20024;-86
2024/01/30 01:32:23;;;;;;;92.95;46.60;;;;;;;;;;6179296;23;20310;-86
2024/01/30 01:34:49;;;;;;;91.82;47.70;;;;;;;;;;6178947;23;20051;-85
2024/01/30 01:37:14;;;;;;;85.50;45.75;;;;;;;;;;6179292;23;19997;-86
2024/01/30 01:39:40;;;;;;;63.50;35.58;;;;;;;;;;6178394;23;20001;-86
2024/01/30 01:42:05;;;;;;;71.60;38.58;;;;;;;;;;6177694;23;20329;-85
2024/01/30 01:44:30;;;;;;;61.03;31.65;;;;;;;;;;6177556;23;20115;-86
2024/01/30 01:46:56;;;;;;;62.50;32.92;;;;;;;;;;6178614;23;20088;-86
2024/01/30 01:49:24;;;;;;;48.88;27.52;;;;;;;;;;6179391;23;20059;-86
2024/01/30 01:51:50;;;;;;;59.20;31.23;;;;;;;;;;6180233;23;20024;-86
2024/01/30 01:54:15;;;;;;;126.13;60.10;;;;;;;;;;6176951;23;20225;-86
2024/01/30 01:56:42;;;;;;;106.22;53.50;;;;;;;;;;6177361;23;20005;-86
2024/01/30 01:59:08;;;;;;;97.75;45.30;;;;;;;;;;6177544;23;20001;-86
2024/01/30 02:01:33;;;;;;;63.83;33.08;;;;;;;;;;6177411;23;20028;-86
2024/01/30 02:03:59;;;;;;;56.95;30.48;;;;;;;;;;6179141;23;20325;-86
2024/01/30 02:06:24;;;;;;;45.15;26.42;;;;;;;;;;6177240;23;20475;-87
2024/01/30 02:08:50;;;;;;;45.33;25.55;;;;;;;;;;6177152;23;20024;-87
2024/01/30 02:11:16;;;;;;;43.03;25.63;;;;;;;;;;6179260;23;20001;-86
2024/01/30 02:13:43;;;;;;;112.55;58.08;;;;;;;;;;6177484;23;20005;-86
2024/01/30 02:16:08;;;;;;;92.00;45.10;;;;;;;;;;6179772;23;20001;-88
2024/01/30 02:18:34;;;;;;;94.05;48.05;;;;;;;;;;6176753;23;20456;-86
2024/01/30 02:21:03;;;;;;;203.80;98.00;;;;;;;;;;6177600;23;20004;-86
2024/01/30 02:23:30;;;;;;;148.50;74.80;;;;;;;;;;6180212;23;20008;-86
2024/01/30 02:25:56;;;;;;;115.90;60.83;;;;;;;;;;6179334;23;20009;-85
2024/01/30 02:28:21;;;;;;;116.28;64.00;;;;;;;;;;6179627;23;20054;-85
2024/01/30 02:30:46;;;;;;;129.13;63.85;;;;;;;;;;6176510;23;20001;-86
2024/01/30 02:33:13;;;;;;;111.03;59.47;;;;;;;;;;6179012;23;20016;-87
2024/01/30 02:35:39;;;;;;;92.57;49.10;;;;;;;;;;6179272;23;20021;-86
2024/01/30 02:38:04;;;;;;;70.40;40.35;;;;;;;;;;6178779;23;19996;-86
2024/01/30 02:40:30;;;;;;;75.32;38.78;;;;;;;;;;6177771;23;20007;-87
2024/01/30 02:42:55;;;;;;;59.05;32.80;;;;;;;;;;6176447;23;20011;-85
2024/01/30 02:45:21;;;;;;;64.82;33.20;;;;;;;;;;6178344;23;20012;-85
2024/01/30 02:47:46;;;;;;;92.45;51.10;;;;;;;;;;6178830;23;20453;-86
2024/01/30 02:50:11;;;;;;;107.13;52.40;;;;;;;;;;6177833;23;20032;-86
2024/01/30 02:52:37;;;;;;;77.22;40.47;;;;;;;;;;6178550;23;20085;-86
2024/01/30 02:55:02;;;;;;;91.35;45.63;;;;;;;;;;6179100;23;20112;-88
2024/01/30 02:57:28;;;;;;;112.93;57.30;;;;;;;;;;6176172;23;20015;-87
2024/01/30 02:59:54;;;;;;;119.60;60.25;;;;;;;;;;6178971;23;20000;-86
2024/01/30 03:02:19;;;;;;;124.53;60.72;;;;;;;;;;6176439;23;19993;-86
2024/01/30 03:04:44;;;;;;;123.60;64.85;;;;;;;;;;6178603;23;20056;-87
2024/01/30 03:07:09;;;;;;;101.55;53.03;;;;;;;;;;6176760;23;20466;-87
2024/01/30 03:09:36;;;;;;;110.25;55.03;;;;;;;;;;6176703;23;20004;-87
2024/01/30 03:12:01;;;;;;;105.47;53.67;;;;;;;;;;6177279;23;20040;-87
2024/01/30 03:14:26;;;;;;;107.53;52.15;;;;;;;;;;6177140;23;20043;-87
2024/01/30 03:16:52;;;;;;;133.15;68.38;;;;;;;;;;6178394;23;20016;-88
2024/01/30 03:19:18;;;;;;;111.38;58.40;;;;;;;;;;6178732;23;20001;-87
2024/01/30 03:21:44;;;;;;;137.95;68.65;;;;;;;;;;6177643;23;20373;-87
2024/01/30 03:24:09;;;;;;;128.57;64.25;;;;;;;;;;6177591;23;20001;-87
2024/01/30 03:26:34;;;;;;;125.10;59.80;;;;;;;;;;6177699;23;20005;-88
2024/01/30 03:28:59;;;;;;;124.65;60.95;;;;;;;;;;6178778;23;20484;-88
2024/01/30 03:31:25;;;;;;;112.80;57.47;;;;;;;;;;6179225;23;19993;-88
2024/01/30 03:33:50;;;;;;;140.93;66.60;;;;;;;;;;6178032;23;20005;-87
2024/01/30 03:36:16;;;;;;;115.05;58.88;;;;;;;;;;6177357;23;20001;-88
2024/01/30 03:38:41;;;;;;;105.10;55.80;;;;;;;;;;6176983;23;20011;-86
2024/01/30 03:41:10;;;;;;;113.53;55.85;;;;;;;;;;6176985;23;20004;-86
2024/01/30 03:43:35;;;;;;;130.38;72.65;;;;;;;;;;6178053;23;20020;-88
2024/01/30 03:46:01;;;;;;;160.60;78.20;;;;;;;;;;6178936;23;20009;-87
2024/01/30 03:48:26;;;;;;;139.02;67.03;;;;;;;;;;6177773;23;20135;-88
2024/01/30 03:50:52;;;;;;;139.43;68.55;;;;;;;;;;6178014;23;20005;-87
2024/01/30 03:53:17;;;;;;;157.02;73.90;;;;;;;;;;6178428;23;20084;-87
2024/01/30 03:55:42;;;;;;;147.85;71.50;;;;;;;;;;6178699;23;20051;-87
2024/01/30 03:58:08;;;;;;;120.65;61.10;;;;;;;;;;6178586;23;20024;-87
2024/01/30 04:00:35;;;;;;;123.97;58.35;;;;;;;;;;6179233;23;20012;-87
2024/01/30 04:03:00;;;;;;;104.50;53.80;;;;;;;;;;6154011;23;20008;-87
2024/01/30 04:05:25;;;;;;;107.60;55.20;;;;;;;;;;6179448;23;20001;-87
2024/01/30 04:07:51;;;;;;;103.78;54.97;;;;;;;;;;6178360;23;20011;-87
2024/01/30 04:10:16;;;;;;;107.20;53.80;;;;;;;;;;6178923;23;20015;-87
2024/01/30 04:12:42;;;;;;;123.67;62.87;;;;;;;;;;6180240;23;20372;-87
2024/01/30 04:15:07;;;;;;;104.07;47.30;;;;;;;;;;6178902;23;19997;-88
2024/01/30 04:17:33;;;;;;;104.57;53.58;;;;;;;;;;6179010;23;19997;-88
2024/01/30 04:19:58;;;;;;;140.43;71.90;;;;;;;;;;6154501;23;20012;-88
2024/01/30 04:22:23;;;;;;;165.68;79.80;;;;;;;;;;6178684;23;20087;-87
2024/01/30 04:24:49;;;;;;;153.07;69.45;;;;;;;;;;6179202;23;20020;-88
2024/01/30 04:27:15;;;;;;;149.13;68.10;;;;;;;;;;6180613;23;20097;-86
2024/01/30 04:29:40;;;;;;;131.50;63.85;;;;;;;;;;6178849;23;20027;-87
2024/01/30 04:32:07;;;;;;;107.25;53.60;;;;;;;;;;6184001;23;20116;-89
2024/01/30 04:34:32;;;;;;;89.63;45.97;;;;;;;;;;6196141;23;20016;-87
2024/01/30 04:36:57;;;;;;;122.05;56.13;;;;;;;;;;6154621;23;20425;-88
2024/01/30 04:39:23;;;;;;;112.43;54.88;;;;;;;;;;6177857;23;20055;-86
2024/01/30 04:41:48;;;;;;;112.50;55.70;;;;;;;;;;6178484;23;19997;-87
2024/01/30 04:44:13;;;;;;;103.68;52.42;;;;;;;;;;6178364;23;20412;-87
2024/01/30 04:46:39;;;;;;;116.37;54.47;;;;;;;;;;6178598;23;20013;-88
2024/01/30 04:49:04;;;;;;;247.30;97.28;;;;;;;;;;6179460;23;20380;-88
2024/01/30 04:51:29;;;;;;;140.50;68.67;;;;;;;;;;6178341;23;20548;-89
2024/01/30 04:53:55;;;;;;;191.70;90.87;;;;;;;;;;6180038;23;20444;-88
2024/01/30 04:56:20;;;;;;;218.90;99.50;;;;;;;;;;6178285;23;20001;-88
2024/01/30 04:58:45;;;;;;;204.35;95.35;;;;;;;;;;6180205;23;19994;-88
2024/01/30 05:01:14;;;;;;;173.93;86.22;;;;;;;;;;6179920;23;19997;-88
2024/01/30 05:03:39;;;;;;;145.73;75.25;;;;;;;;;;6178735;23;20031;-88
2024/01/30 05:06:05;;;;;;;200.55;104.75;;;;;;;;;;6180306;23;20024;-88
2024/01/30 05:08:30;;;;;;;162.57;87.18;;;;;;;;;;6179841;23;20005;-87
2024/01/30 05:10:56;;;;;;;172.87;85.37;;;;;;;;;;6180154;23;20008;-88
2024/01/30 05:13:21;;;;;;;213.97;107.07;;;;;;;;;;6153646;23;20005;-88
2024/01/30 05:15:46;;;;;;;175.60;90.60;;;;;;;;;;6178401;23;20434;-88
2024/01/30 05:18:11;;;;;;;187.57;89.80;;;;;;;;;;6178923;23;20399;-88
2024/01/30 05:20:37;;;;;;;170.17;85.10;;;;;;;;;;6184148;23;20080;-88
2024/01/30 05:23:02;;;;;;;168.13;88.97;;;;;;;;;;6180503;23;20007;-88
2024/01/30 05:25:27;;;;;;;171.37;87.23;;;;;;;;;;6179468;23;20008;-88
2024/01/30 05:27:53;;;;;;;195.73;96.80;;;;;;;;;;6178749;23;19997;-86
2024/01/30 05:30:18;;;;;;;191.60;94.50;;;;;;;;;;6178703;23;20012;-88
2024/01/30 05:32:43;;;;;;;200.50;109.53;;;;;;;;;;6178650;23;20024;-89
2024/01/30 05:35:09;;;;;;;215.03;112.63;;;;;;;;;;6178630;23;20088;-88
2024/01/30 05:37:34;;;;;;;201.53;94.90;;;;;;;;;;6178720;23;20048;-88
2024/01/30 05:39:59;;;;;;;202.73;94.63;;;;;;;;;;6178221;23;20003;-89
2024/01/30 05:42:27;;;;;;;327.50;146.47;;;;;;;;;;6179092;23;20322;-89
2024/01/30 05:44:52;;;;;;;297.33;147.30;;;;;;;;;;6180304;23;20055;-89
2024/01/30 05:47:17;;;;;;;363.57;165.37;;;;;;;;;;6179311;23;20346;-89
2024/01/30 05:49:43;;;;;;;351.13;164.30;;;;;;;;;;6177943;23;20005;-87
2024/01/30 05:52:08;;;;;;;234.90;109.30;;;;;;;;;;6178387;23;20001;-88
2024/01/30 05:54:33;;;;;;;351.93;162.23;;;;;;;;;;6179467;23;19998;-89
2024/01/30 05:56:59;;;;;;;545.77;286.70;;;;;;;;;;6178541;23;19993;-89
2024/01/30 05:59:24;;;;;;;304.20;138.30;;;;;;;;;;6179104;23;20007;-89
2024/01/30 06:01:50;;;;;;;293.30;133.83;;;;;;;;;;6182398;23;20005;-91
2024/01/30 06:04:15;;;;;;;312.23;156.77;;;;;;;;;;6185880;23;20032;-90
2024/01/30 06:06:41;;;;;;;248.23;119.47;;;;;;;;;;6186606;23;20024;-91
2024/01/30 06:09:08;;;;;;;201.97;108.03;;;;;;;;;;6186388;23;20313;-89
2024/01/30 06:11:34;;;;;;;214.87;106.77;;;;;;;;;;6184837;23;20005;-87
2024/01/30 06:13:59;;;;;;;198.77;102.20;;;;;;;;;;6186716;23;20400;-89
2024/01/30 06:16:29;;;;;;;231.17;118.60;;;;;;;;;;6184030;23;20052;-89
2024/01/30 06:18:54;;;;;;;218.77;109.60;;;;;;;;;;6184891;23;20154;-90
2024/01/30 06:21:19;;;;;;;579.10;234.07;;;;;;;;;;6193318;23;20009;-89
2024/01/30 06:23:45;;;;;;;243.87;118.03;;;;;;;;;;6197018;23;20005;-88
2024/01/30 06:26:10;;;;;;;635.40;283.03;;;;;;;;;;6194268;23;20385;-89
2024/01/30 06:28:35;;;;;;;353.70;165.47;;;;;;;;;;6193255;23;20001;-88
2024/01/30 06:31:01;;;;;;;606.87;322.43;;;;;;;;;;6188354;23;20013;-89
2024/01/30 06:33:26;;;;;;;463.87;244.43;;;;;;;;;;6192459;23;20001;-90
2024/01/30 06:35:51;;;;;;;417.07;195.43;;;;;;;;;;6189396;23;19997;-90
2024/01/30 06:38:17;;;;;;;140.83;69.13;;;;;;;;;;6187126;23;19997;-90
2024/01/30 06:40:43;;;;;;;202.53;102.80;;;;;;;;;;6193491;23;19993;-89
2024/01/30 06:43:09;;;;;;;394.07;187.50;;;;;;;;;;6191990;23;20020;-88
2024/01/30 06:45:34;;;;;;;411.37;186.90;;;;;;;;;;6190216;23;20001;-91
2024/01/30 06:48:00;;;;;;;128.10;71.03;;;;;;;;;;6190269;23;20212;-89
2024/01/30 06:50:25;;;;;;;252.23;136.17;;;;;;;;;;6188772;23;20008;-89
2024/01/30 06:52:51;;;;;;;122.70;66.70;;;;;;;;;;6183512;23;20001;-88
2024/01/30 06:55:18;;;;;;;149.17;82.40;;;;;;;;;;6187219;23;19993;-89
2024/01/30 06:57:43;;;;;;;130.90;64.90;;;;;;;;;;6187236;23;20005;-90
2024/01/30 07:00:08;;;;;;;159.93;80.33;;;;;;;;;;6183997;23;20372;-87
2024/01/30 07:02:34;;;;;;;130.07;68.35;;;;;;;;;;6187821;23;19997;-88
2024/01/30 07:04:59;;;;;;;171.80;100.13;;;;;;;;;;6192246;23;20004;-88
2024/01/30 07:07:24;;;;;;;98.63;50.27;;;;;;;;;;6186846;23;20040;-88
2024/01/30 07:09:52;;;;;;;109.60;56.37;;;;;;;;;;6183948;23;20033;-89
2024/01/30 07:12:17;;;;;;;168.07;85.75;;;;;;;;;;6185317;23;20008;-89
2024/01/30 07:14:43;;;;;;;106.35;53.22;;;;;;;;;;6180362;23;20005;-88
2024/01/30 07:17:08;;;;;;;128.57;71.70;;;;;;;;;;6182174;23;19997;-87
2024/01/30 07:19:34;;;;;;;109.22;51.35;;;;;;;;;;6182625;23;20357;-88
2024/01/30 07:21:59;;;;;;;94.43;47.20;;;;;;;;;;6180524;23;20409;-87
2024/01/30 07:24:25;;;;;;;124.37;63.87;;;;;;;;;;6181633;23;20001;-87
2024/01/30 07:26:50;;;;;;;194.57;103.65;;;;;;;;;;6177109;23;20322;-86
2024/01/30 07:29:16;;;;;;;85.47;47.08;;;;;;;;;;6176640;23;20108;-87
2024/01/30 07:31:41;;;;;;;114.28;63.47;;;;;;;;;;6176469;23;20365;-87
2024/01/30 07:34:06;;;;;;;113.68;59.03;;;;;;;;;;6175293;23;20451;-87
2024/01/30 07:36:32;;;;;;;126.90;73.00;;;;;;;;;;6176160;23;20001;-87
2024/01/30 07:38:57;;;;;;;111.40;60.55;;;;;;;;;;6176241;23;20032;-86
2024/01/30 07:41:25;;;;;;;114.10;59.08;;;;;;;;;;6179005;23;20001;-86
2024/01/30 07:43:50;;;;;;;140.82;66.05;;;;;;;;;;6172068;23;20100;-86
2024/01/30 07:46:15;;;;;;;131.00;64.32;;;;;;;;;;6153187;23;20028;-86
2024/01/30 07:48:40;;;;;;;139.65;73.40;;;;;;;;;;6185208;23;20009;-85
2024/01/30 07:51:06;;;;;;;115.63;63.20;;;;;;;;;;6177637;23;20727;-86
2024/01/30 07:53:31;;;;;;;152.82;84.05;;;;;;;;;;6172899;23;20028;-85
2024/01/30 07:55:56;;;;;;;133.15;70.43;;;;;;;;;;6148413;23;20012;-85
2024/01/30 07:58:23;;;;;;;109.15;61.40;;;;;;;;;;6173155;23;20435;-85
2024/01/30 08:00:48;;;;;;;112.93;65.45;;;;;;;;;;6147845;23;20576;-85
2024/01/30 08:03:16;;;;;;;126.97;68.78;;;;;;;;;;6154191;23;20035;-85
2024/01/30 08:05:41;;;;;;;143.80;77.75;;;;;;;;;;6176361;23;20001;-86
2024/01/30 08:08:06;;;;;;;92.93;51.88;;;;;;;;;;6172429;23;20055;-85
2024/01/30 08:10:32;;;;;;;52.13;32.13;;;;;;;;;;6147760;23;20008;-87
2024/01/30 08:12:57;;;;;;;56.85;32.83;;;;;;;;;;6148161;23;20009;-87
2024/01/30 08:15:22;;;;;;;49.47;30.48;;;;;;;;;;6175453;23;20025;-87
2024/01/30 08:17:48;;;;;;;107.95;53.67;;;;;;;;;;6174747;23;20302;-86
2024/01/30 08:20:13;;;;;;;39.75;25.13;;;;;;;;;;6173715;23;19997;-84
2024/01/30 08:22:40;;;;;;;51.03;27.17;;;;;;;;;;6177695;23;20063;-88
2024/01/30 08:25:06;;;;;;;40.00;24.80;;;;;;;;;;6178703;23;20062;-88
2024/01/30 08:27:32;;;;;;;40.78;24.92;;;;;;;;;;6179513;23;20004;-87
2024/01/30 08:29:57;;;;;;;37.08;22.52;;;;;;;;;;6178510;23;20647;-89
2024/01/30 08:32:23;;;;;;;41.70;25.42;;;;;;;;;;6176773;23;19994;-88
2024/01/30 08:34:49;;;;;;;40.25;24.65;;;;;;;;;;6180953;23;20017;-89
2024/01/30 08:37:16;;;;;;;38.90;24.05;;;;;;;;;;6180982;23;20160;-89
2024/01/30 08:39:41;;;;;;;58.08;36.75;;;;;;;;;;6185454;23;20001;-88
2024/01/30 08:42:07;;;;;;;71.75;41.78;;;;;;;;;;6178571;23;20008;-89
2024/01/30 08:44:33;;;;;;;146.35;64.78;;;;;;;;;;6178772;23;20017;-87
2024/01/30 08:46:58;;;;;;;65.07;37.22;;;;;;;;;;6179169;23;20009;-87
2024/01/30 08:49:24;;;;;;;45.65;28.15;;;;;;;;;;6178944;23;20006;-88
2024/01/30 08:51:50;;;;;;;47.17;29.45;;;;;;;;;;6178670;23;20000;-88
2024/01/30 08:54:15;;;;;;;93.78;44.38;;;;;;;;;;6178560;23;20001;-88
2024/01/30 08:56:41;;;;;;;70.78;36.25;;;;;;;;;;6180372;23;20020;-88
2024/01/30 08:59:06;;;;;;;45.08;26.63;;;;;;;;;;6178177;23;20033;-88
2024/01/30 09:01:31;;;;;;;61.60;38.20;;;;;;;;;;6153524;23;20012;-88
2024/01/30 09:03:57;;;;;;;43.92;26.63;;;;;;;;;;6183956;23;20232;-88
2024/01/30 09:06:22;;;;;;;61.20;33.90;;;;;;;;;;6178546;23;20052;-88
2024/01/30 09:08:47;;;;;;;46.42;27.17;;;;;;;;;;6178152;23;20060;-88
2024/01/30 09:11:13;;;;;;;111.35;48.30;;;;;;;;;;6153521;23;20096;-86
2024/01/30 09:13:38;;;;;;;46.40;27.65;;;;;;;;;;6177849;23;20011;-88
2024/01/30 09:16:04;;;;;;;51.83;30.88;;;;;;;;;;6177953;23;19993;-88
2024/01/30 09:18:29;;;;;;;54.17;33.08;;;;;;;;;;6178499;23;19997;-87
2024/01/30 09:20:55;;;;;;;109.40;49.67;;;;;;;;;;6179717;23;20005;-88
2024/01/30 09:23:20;;;;;;;85.85;45.22;;;;;;;;;;6177723;23;20005;-88
2024/01/30 09:25:45;;;;;;;45.70;31.08;;;;;;;;;;6179836;23;20051;-88
2024/01/30 09:28:11;;;;;;;70.00;36.88;;;;;;;;;;6177577;23;20001;-87
2024/01/30 09:30:36;;;;;;;48.65;29.23;;;;;;;;;;6179785;23;19997;-88
2024/01/30 09:33:01;;;;;;;49.83;30.85;;;;;;;;;;6177706;23;20009;-88
2024/01/30 09:35:26;;;;;;;66.05;34.75;;;;;;;;;;6179640;23;20005;-87
2024/01/30 09:37:52;;;;;;;53.22;33.63;;;;;;;;;;6177998;23;20032;-88
2024/01/30 09:40:19;;;;;;;66.88;42.38;;;;;;;;;;6178267;23;20076;-88
2024/01/30 09:42:46;;;;;;;41.00;27.17;;;;;;;;;;6178158;23;20001;-87
2024/01/30 09:45:13;;;;;;;36.50;23.95;;;;;;;;;;6178420;23;20091;-87
2024/01/30 09:47:42;;;;;;;40.90;27.15;;;;;;;;;;6177888;23;20592;-88
2024/01/30 09:50:08;;;;;;;54.00;30.65;;;;;;;;;;6178043;23;20005;-88
2024/01/30 09:52:34;;;;;;;49.45;30.38;;;;;;;;;;6177421;23;20314;-88
2024/01/30 09:54:59;;;;;;;689.97;325.67;;;;;;;;;;6179403;23;20007;-88
2024/01/30 09:57:26;;;;;;;135.10;55.33;;;;;;;;;;6152567;23;20033;-87
2024/01/30 09:59:51;;;;;;;74.38;42.65;;;;;;;;;;6179200;23;20096;-86
2024/01/30 10:02:18;;;;;;;55.25;34.28;;;;;;;;;;6178309;23;20025;-86
2024/01/30 10:04:43;;;;;;;53.05;28.88;;;;;;;;;;6179513;23;19997;-87
2024/01/30 10:07:09;;;;;;;56.85;32.08;;;;;;;;;;6177570;23;20009;-88
2024/01/30 10:09:35;;;;;;;220.43;112.45;;;;;;;;;;6177411;23;20009;-86
2024/01/30 10:12:01;;;;;;;117.80;66.55;;;;;;;;;;6179789;23;20432;-86
2024/01/30 10:14:26;;;;;;;87.43;56.40;;;;;;;;;;6177410;23;20035;-86
2024/01/30 10:16:51;;;;;;;51.65;33.70;;;;;;;;;;6177772;23;20368;-85
2024/01/30 10:19:16;;;;;;;40.00;26.50;;;;;;;;;;6178150;23;20058;-85
2024/01/30 10:21:42;;;;;;;43.45;29.45;;;;;;;;;;6178978;23;20075;-85
2024/01/30 10:24:07;;;;;;;53.45;33.72;;;;;;;;;;6178465;23;20356;-86
2024/01/30 10:26:34;;;;;;;58.03;37.50;;;;;;;;;;6179098;23;20543;-85
2024/01/30 10:28:59;;;;;;;46.90;33.83;;;;;;;;;;6177295;23;20011;-86
2024/01/30 10:31:25;;;;;;;49.50;32.85;;;;;;;;;;6177246;23;20093;-86
2024/01/30 10:33:50;;;;;;;43.67;29.33;;;;;;;;;;6177640;23;20245;-85
2024/01/30 10:36:17;;;;;;;56.78;38.47;;;;;;;;;;6177087;23;20025;-85
2024/01/30 10:38:43;;;;;;;35.92;23.42;;;;;;;;;;6177561;23;20063;-86
2024/01/30 10:41:13;;;;;;;26.80;18.92;;;;;;;;;;6177531;23;20001;-85
2024/01/30 10:43:40;;;;;;;24.95;18.38;;;;;;;;;;6176949;23;20041;-86
2024/01/30 10:46:19;;;;;;;24.95;18.33;;;;;;;;;;6179178;23;20505;-86
2024/01/30 10:48:48;;;;;;;24.10;17.83;;;;;;;;;;6179195;23;20001;-84
2024/01/30 10:51:14;;;;;;;25.65;16.70;;;;;;;;;;6178859;23;20424;-84
2024/01/30 10:53:39;;;;;;;24.40;19.92;;;;;;;;;;6177168;23;20055;-85
2024/01/30 10:56:05;;;;;;;25.85;19.83;;;;;;;;;;6177203;23;20429;-84
2024/01/30 10:58:30;;;;;;;33.03;27.63;;;;;;;;;;6176895;23;19997;-87
2024/01/30 11:00:56;;;;;;;20.27;15.27;;;;;;;;;;6178717;23;20023;-85
2024/01/30 11:03:21;;;;;;;21.40;16.70;;;;;;;;;;6177001;23;20031;-84
2024/01/30 11:05:53;;;;;;;26.00;18.48;;;;;;;;;;6177187;23;20059;-85
2024/01/30 11:08:31;;;;;;;22.55;17.05;;;;;;;;;;6177528;23;20365;-87
2024/01/30 11:10:57;;;;;;;20.90;15.32;;;;;;;;;;6171554;23;20009;-84
2024/01/30 11:13:26;;;;;;;23.83;16.17;;;;;;;;;;6177154;23;20329;-84
2024/01/30 11:15:51;;;;;;;21.98;16.88;;;;;;;;;;6179152;23;19989;-86
2024/01/30 11:18:28;;;;;;;24.15;19.05;;;;;;;;;;6177411;23;20012;-86
2024/01/30 11:20:56;;;;;;;31.35;20.58;;;;;;;;;;6178378;23;20032;-84
2024/01/30 11:23:22;;;;;;;24.27;17.17;;;;;;;;;;6176895;23;20336;-85
2024/01/30 11:25:47;;;;;;;21.02;16.60;;;;;;;;;;6176861;23;20008;-84
2024/01/30 11:28:14;;;;;;;16.40;11.52;;;;;;;;;;6178202;23;20004;-85
2024/01/30 11:30:39;;;;;;;20.35;16.95;;;;;;;;;;6177261;23;20001;-84
2024/01/30 11:33:04;;;;;;;22.38;18.08;;;;;;;;;;6176695;23;20055;-84
2024/01/30 11:35:33;;;;;;;23.15;17.80;;;;;;;;;;6177145;23;20071;-84
2024/01/30 11:37:59;;;;;;;;;;;;;;;;;;6179319;23;20006;-85
2024/01/30 11:40:27;;;;;;;14.57;12.00;;;;;;;;;;6178383;23;20057;-84
2024/01/30 11:42:53;;;;;;;11.45;8.85;;;;;;;;;;6177294;23;20083;-84
2024/01/30 11:45:18;;;;;;;12.48;9.60;;;;;;;;;;6177882;23;20075;-87
2024/01/30 11:47:43;;;;;;;14.38;10.80;;;;;;;;;;6179247;23;20449;-85
2024/01/30 11:50:10;;;;;;;11.00;8.80;;;;;;;;;;6176704;23;20087;-86
2024/01/30 11:52:36;;;;;;;13.15;9.73;;;;;;;;;;6177047;23;20004;-87
2024/01/30 11:55:02;;;;;;;10.77;9.38;;;;;;;;;;6178481;23;20001;-87
2024/01/30 11:57:27;;;;;;;13.63;10.32;;;;;;;;;;6177195;23;20011;-86
2024/01/30 11:59:53;;;;;;;11.52;9.45;;;;;;;;;;6176471;23;20055;-87
2024/01/30 12:02:18;;;;;;;11.95;9.23;;;;;;;;;;6176415;23;19997;-87
2024/01/30 12:04:44;;;;;;;12.52;9.77;;;;;;;;;;6178498;23;20302;-87
2024/01/30 12:07:10;;;;;;;11.75;9.55;;;;;;;;;;6176957;23;20008;-87
2024/01/30 12:09:35;;;;;;;14.60;10.38;;;;;;;;;;6176575;23;20084;-86
2024/01/30 12:12:00;;;;;;;11.75;9.52;;;;;;;;;;6178273;23;20001;-86
2024/01/30 12:14:26;;;;;;;13.02;10.10;;;;;;;;;;6176779;23;20001;-86
2024/01/30 12:16:51;;;;;;;11.18;8.85;;;;;;;;;;6178768;23;20001;-87
2024/01/30 12:19:26;;;;;;;9.73;8.27;;;;;;;;;;6179149;23;20084;-86
2024/01/30 12:21:58;;;;;;;9.50;8.05;;;;;;;;;;6178160;23;20028;-86
2024/01/30 12:24:27;;;;;;;10.65;8.63;;;;;;;;;;6178639;23;20109;-86
2024/01/30 12:26:56;;;;;;;13.98;9.90;;;;;;;;;;6179063;23;20376;-86
2024/01/30 12:29:22;;;;;;;13.07;10.18;;;;;;;;;;6180391;23;20025;-86
2024/01/30 12:31:47;;;;;;;10.73;8.93;;;;;;;;;;6178385;23;20005;-87
2024/01/30 12:34:17;;;;;;;13.98;10.55;;;;;;;;;;6180726;23;20005;-87
2024/01/30 12:36:42;;;;;;;9.23;7.90;;;;;;;;;;6178413;23;20008;-88
2024/01/30 12:39:10;;;;;;;8.88;7.47;;;;;;;;;;6179687;23;20077;-87
2024/01/30 12:41:36;;;;;;;9.88;8.13;;;;;;;;;;6180049;23;19997;-86
2024/01/30 12:44:01;;;;;;;12.27;10.02;;;;;;;;;;6176407;23;20360;-87
2024/01/30 12:46:29;;;;;;;11.10;9.82;;;;;;;;;;6151539;23;20084;-85
2024/01/30 12:48:55;;;;;;;10.32;8.13;;;;;;;;;;6152384;23;20010;-86
2024/01/30 12:51:20;;;;;;;8.50;7.18;;;;;;;;;;6151110;23;20065;-85
2024/01/30 12:53:47;;;;;;;11.32;8.57;;;;;;;;;;6151642;23;20425;-86
2024/01/30 12:56:13;;;;;;;8.68;7.30;;;;;;;;;;6152143;23;20028;-86
2024/01/30 12:58:38;;;;;;;9.90;7.72;;;;;;;;;;6176636;23;20433;-87
2024/01/30 13:01:03;;;;;;;11.13;8.75;;;;;;;;;;6151517;23;20000;-86
2024/01/30 13:03:29;;;;;;;11.05;8.80;;;;;;;;;;6151880;23;19997;-87
2024/01/30 13:05:54;;;;;;;7.93;6.03;;;;;;;;;;6151285;23;20445;-85
2024/01/30 13:08:20;;;;;;;12.10;9.05;;;;;;;;;;6176818;23;20741;-87
2024/01/30 13:10:46;;;;;;;9.20;7.95;;;;;;;;;;6176609;23;20020;-86
2024/01/30 13:13:11;;;;;;;8.35;6.50;;;;;;;;;;6176734;23;20012;-87
2024/01/30 13:15:36;;;;;;;10.77;8.70;;;;;;;;;;6178857;23;20001;-86
2024/01/30 13:18:02;;;;;;;7.78;6.97;;;;;;;;;;6178543;23;20381;-88
2024/01/30 13:20:27;;;;;;;11.27;8.80;;;;;;;;;;6179872;23;20376;-88
2024/01/30 13:22:53;;;;;;;11.45;9.90;;;;;;;;;;6174544;23;19993;-87
2024/01/30 13:25:18;;;;;;;17.20;12.75;;;;;;;;;;6174309;23;19997;-87
2024/01/30 13:27:44;;;;;;;9.50;8.18;;;;;;;;;;6178312;23;20417;-86
2024/01/30 13:30:09;;;;;;;7.80;6.95;;;;;;;;;;6177256;23;20020;-86
2024/01/30 13:32:35;;;;;;;8.43;5.50;;;;;;;;;;6177414;23;20063;-87
2024/01/30 13:35:00;;;;;;;8.98;6.82;;;;;;;;;;6178012;23;20008;-86
2024/01/30 13:37:26;;;;;;;6.85;5.25;;;;;;;;;;6177027;23;20004;-86
2024/01/30 13:39:51;;;;;;;9.90;7.53;;;;;;;;;;6172094;23;20016;-87
2024/01/30 13:42:16;;;;;;;11.20;8.75;;;;;;;;;;6175083;23;19996;-85
2024/01/30 13:44:43;;;;;;;13.45;9.95;;;;;;;;;;6170857;23;20017;-85
2024/01/30 13:47:09;;;;;;;16.10;8.10;;;;;;;;;;6173226;23;20008;-86
2024/01/30 13:49:34;;;;;;;11.10;8.05;;;;;;;;;;6174780;23;20001;-86
2024/01/30 13:51:59;;;;;;;8.70;6.78;;;;;;;;;;6179399;23;20419;-87
2024/01/30 13:54:25;;;;;;;13.35;6.47;;;;;;;;;;6179736;23;20043;-86
2024/01/30 13:56:51;;;;;;;6.45;5.85;;;;;;;;;;6173053;23;20001;-86
2024/01/30 13:59:22;;;;;;;7.25;6.05;;;;;;;;;;6173527;23;20001;-86
2024/01/30 14:01:48;;;;;;;6.97;5.90;;;;;;;;;;6173845;23;19997;-86
2024/01/30 14:04:14;;;;;;;6.55;5.95;;;;;;;;;;6175537;23;19989;-87